Latest Weather Observations for Kingscote

IDS60801

Issued at 7:01 pm CDT Wednesday 22 February 2017 (issued every 30 minutes, with the page automatically refreshed every 10 minutes)

About weather observations | Map of weather stations | Latest weather observations for SA | Other Formats
Station Details ID: 022841 Name: KINGSCOTE AERO Lat: -35.71 Lon: 137.52 Height: 6.23 m
Data from the previous 72 hours. | See also: Recent months at Kingscote
Date/Time
CDT
Temp
°C
App
Temp
°C
Dew
Point
°C
Rel
Hum
%
Delta-T
°C
Wind Press
QNH
hPa
Press
MSL
hPa
Rain since
9am
mm
Dir  Spd
km/h
Gust
km/h
Spd
kts
Gust
kts
22/06:31pm 21.4 14.0 12.5 57 5.0 WNW 43 61 23 33 1011.4 1011.4 0.0
22/06:30pm 21.6 14.2 13.0 58 4.9 WNW 44 61 24 33 1011.4 1011.4 0.0
22/06:03pm 21.5 13.5 12.4 56 5.1 WNW 46 65 25 35 1010.9 1010.9 0.0
22/06:00pm 21.8 14.1 12.1 54 5.5 WNW 44 61 24 33 1011.0 1011.0 0.0
22/05:30pm 22.3 14.7 12.3 53 5.7 NW 44 69 24 37 1010.4 1010.4 0.0
22/05:06pm 22.5 13.3 10.9 48 6.4 WNW 50 69 27 37 1010.2 1010.2 0.0
22/05:00pm 23.3 14.0 11.7 48 6.5 WNW 52 69 28 37 1010.3 1010.3 0.0
22/04:30pm 22.9 13.4 11.0 47 6.6 WNW 52 70 28 38 1010.2 1010.2 0.0
22/04:00pm 23.3 14.0 10.7 45 7.0 WNW 50 69 27 37 1009.9 1009.9 0.0
22/03:38pm 23.4 13.9 9.8 42 7.4 WNW 50 69 27 37 1009.7 1009.7 0.0
22/03:30pm 23.7 14.3 10.0 42 7.5 WNW 50 67 27 36 1009.5 1009.5 0.0
22/03:00pm 24.0 14.0 9.2 39 8.0 WNW 52 70 28 38 1009.6 1009.6 0.0
22/02:30pm 24.9 16.3 10.4 40 8.1 WNW 46 69 25 37 1009.5 1009.5 0.0
22/02:05pm 24.1 15.7 11.1 44 7.3 WNW 46 65 25 35 1009.3 1009.3 0.0
22/02:00pm 23.7 14.3 10.0 42 7.5 WNW 50 65 27 35 1009.2 1009.2 0.0
22/01:30pm 23.3 15.3 12.3 50 6.3 WNW 46 65 25 35 1009.1 1009.1 0.0
22/01:00pm 23.0 15.1 11.4 48 6.5 WNW 44 63 24 34 1009.2 1009.2 0.0
22/12:40pm 22.9 15.1 11.3 48 6.5 WNW 43 61 23 33 1009.1 1009.1 0.0
22/12:30pm 22.3 14.4 10.8 48 6.3 WNW 43 56 23 30 1009.4 1009.4 0.0
22/12:12pm 22.8 15.0 11.2 48 6.5 WNW 43 61 23 33 1009.2 1009.2 0.0
22/12:00pm 22.4 14.7 11.5 50 6.1 WNW 43 59 23 32 1009.1 1009.1 0.0
22/11:42am 21.6 16.0 12.2 55 5.3 WNW 33 52 18 28 1009.2 1009.2 0.0
22/11:30am 20.9 14.3 11.3 54 5.3 WNW 37 52 20 28 1009.0 1009.0 0.0
22/11:00am 22.0 17.3 10.5 48 6.3 NW 26 35 14 19 1007.2 1007.2 0.0
22/10:46am 22.6 17.5 10.7 47 6.6 WNW 28 46 15 25 1008.2 1008.2 0.0
22/10:30am 21.7 16.5 11.7 53 5.6 W 30 43 16 23 1008.8 1008.8 0.0
22/10:00am 22.1 16.8 12.4 54 5.5 W 32 44 17 24 1008.9 1008.9 0.0
22/09:40am 23.3 17.3 14.3 57 5.3 WSW 39 57 21 31 1008.4 1008.4 0.0
22/09:30am 24.6 20.1 15.0 55 5.8 W 32 50 17 27 1007.6 1007.6 0.0
22/09:29am 24.8 20.5 15.4 56 5.7 WNW 32 50 17 27 1007.6 1007.6 0.0
22/09:00am 24.6 18.0 13.8 51 6.4 NW 41 56 22 30 1006.7 1006.7 0.0
22/08:59am 24.8 18.2 13.7 50 6.5 NW 41 56 22 30 1006.6 1006.6 0.0
22/08:51am 25.2 20.0 12.8 46 7.2 NNW 32 52 17 28 1006.4 1006.4 0.0
22/08:30am 24.4 19.7 12.0 46 7.1 NNW 28 41 15 22 1006.1 1006.1 0.0
22/08:00am 23.5 19.6 9.5 41 7.6 N 20 37 11 20 1006.1 1006.1 0.0
22/07:30am 23.3 18.1 10.4 44 7.1 N 28 41 15 22 1005.5 1005.5 0.0
22/07:08am 23.2 18.2 10.9 46 6.8 NNE 28 46 15 25 1005.1 1005.1 0.0
22/07:00am 22.9 18.3 11.0 47 6.6 NNE 26 39 14 21 1005.1 1005.1 0.0
22/06:30am 22.3 18.3 11.7 51 6.0 NNE 24 33 13 18 1005.0 1005.0 0.0
22/06:00am 22.3 18.3 11.7 51 6.0 NNE 24 35 13 19 1005.0 1005.0 0.0
22/05:30am 22.7 17.7 11.1 48 6.5 NNE 28 43 15 23 1005.1 1005.1 0.0
22/05:00am 23.0 18.2 11.7 49 6.4 N 28 41 15 22 1005.1 1005.1 0.0
22/04:38am 23.1 18.0 11.8 49 6.4 NNE 30 48 16 26 1005.1 1005.1 0.0
22/04:30am 23.4 17.9 11.8 48 6.6 N 32 48 17 26 1005.1 1005.1 0.0
22/04:00am 23.3 17.8 11.7 48 6.5 NNE 32 50 17 27 1005.4 1005.4 0.0
22/03:55am 23.5 17.9 11.5 47 6.7 NNE 32 50 17 27 1005.5 1005.5 0.0
22/03:30am 23.8 18.3 11.8 47 6.8 NNE 32 46 17 25 1005.9 1005.9 0.0
22/03:00am 23.1 20.3 12.7 52 6.0 NNE 19 28 10 15 1006.8 1006.8 0.0
22/02:30am 23.4 20.4 12.1 49 6.4 NNE 19 35 10 19 1007.3 1007.3 0.0
22/02:00am 23.1 20.1 12.7 52 6.0 NNE 20 30 11 16 1007.6 1007.6 0.0
22/01:30am 23.3 20.3 12.6 51 6.1 NNE 20 32 11 17 1008.1 1008.1 0.0
22/01:00am 22.8 20.2 13.8 57 5.2 NNE 20 33 11 18 1008.8 1008.8 0.0
22/12:30am 19.5 18.9 13.4 68 3.5 NNE 9 20 5 11 1009.1 1009.1 0.0
22/12:00am 19.7 18.8 13.6 68 3.5 NE 11 13 6 7 1009.7 1009.7 0.0
 
Date/Time
CDT
Temp
°C
App
Temp
°C
Dew
Point
°C
Rel
Hum
%
Delta-T
°C
Wind Press
QNH
hPa
Press
MSL
hPa
Rain since
9am
mm
Dir  Spd
km/h
Gust
km/h
Spd
kts
Gust
kts
21/11:30pm 19.3 18.7 14.6 74 2.7 NE 11 15 6 8 1010.1 1010.1 0.0
21/11:00pm 19.8 18.9 14.8 73 2.9 NE 13 15 7 8 1010.5 1010.5 0.0
21/10:30pm 20.2 19.0 15.0 72 3.1 NE 15 19 8 10 1011.1 1011.1 0.0
21/10:00pm 20.4 19.4 14.7 70 3.3 NE 13 19 7 10 1011.3 1011.3 0.0
21/09:30pm 20.5 19.1 13.5 64 4.0 ENE 13 15 7 8 1011.5 1011.5 0.0
21/09:00pm 21.4 19.3 12.5 57 5.0 ENE 15 20 8 11 1011.5 1011.5 0.0
21/08:30pm 21.5 19.0 12.4 56 5.1 ENE 17 20 9 11 1011.4 1011.4 0.0
21/08:00pm 21.6 18.7 12.2 55 5.3 ENE 19 22 10 12 1011.4 1011.4 0.0
21/07:30pm 22.9 19.4 11.0 47 6.6 ENE 20 30 11 16 1011.3 1011.3 0.0
21/07:00pm 24.6 21.0 9.7 39 8.2 ENE 19 22 10 12 1011.6 1011.6 0.0
21/06:30pm 24.9 21.3 10.0 39 8.2 ENE 19 24 10 13 1012.0 1012.0 0.0
21/06:00pm 25.5 22.5 12.0 43 7.7 ENE 19 24 10 13 1012.3 1012.3 0.0
21/05:30pm 25.9 21.9 10.5 38 8.6 ENE 22 28 12 15 1012.5 1012.5 0.0
21/05:00pm 25.0 21.0 12.9 47 7.0 E 26 32 14 17 1012.7 1012.7 0.0
21/04:30pm 25.5 22.2 12.7 45 7.4 ENE 22 32 12 17 1013.3 1013.3 0.0
21/04:00pm 24.9 21.9 12.5 46 7.1 NE 20 26 11 14 1013.9 1013.9 0.0
21/03:30pm 25.4 22.0 12.6 45 7.4 NE 22 30 12 16 1014.2 1014.2 0.0
21/03:00pm 25.4 22.0 11.2 41 8.0 ENE 20 28 11 15 1014.6 1014.6 0.0
21/02:30pm 25.5 22.2 11.7 42 7.8 NE 20 30 11 16 1015.1 1015.1 0.0
21/02:00pm 24.9 21.4 10.8 41 7.9 NE 20 26 11 14 1015.6 1015.6 0.0
21/01:30pm 24.4 21.2 11.4 44 7.3 NE 19 28 10 15 1016.1 1016.1 0.0
21/01:00pm 23.6 19.9 11.6 47 6.8 NE 22 28 12 15 1016.5 1016.5 0.0
21/12:30pm 22.9 19.1 11.0 47 6.6 NE 22 32 12 17 1016.8 1016.8 0.0
21/12:00pm 22.6 19.0 12.0 51 6.0 NE 22 32 12 17 1017.1 1017.1 0.0
21/11:30am 21.7 18.1 12.0 54 5.4 NE 22 33 12 18 1017.7 1017.7 0.0
21/11:00am 21.6 18.6 12.5 56 5.2 NE 20 28 11 15 1017.8 1017.8 0.0
21/10:30am 21.2 18.5 12.9 59 4.7 NE 19 26 10 14 1018.3 1018.3 0.0
21/10:00am 20.1 17.3 12.6 62 4.2 NE 19 26 10 14 1018.5 1018.5 0.0
21/09:30am 19.4 16.5 12.4 64 3.9 NE 19 24 10 13 1018.6 1018.6 0.0
21/09:00am 18.2 17.8 12.4 69 3.2 NE 6 24 3 13 1018.5 1018.5 0.0
21/08:56am 17.8 18.3 12.7 72 2.8 NE 2 11 1 6 1018.5 1018.5 0.0
21/08:30am 12.8 12.9 10.2 84 1.3 CALM 0 0 0 0 1018.4 1018.4 0.0
21/08:00am 10.1 9.9 8.9 92 0.6 CALM 0 0 0 0 1018.3 1018.3 0.0
21/07:30am 6.6 5.7 5.9 95 0.3 CALM 0 0 0 0 1018.2 1018.2 0.0
21/07:00am 5.8 4.7 5.1 95 0.3 CALM 0 0 0 0 1017.9 1017.9 0.0
21/06:30am 5.0 3.7 4.0 93 0.4 CALM 0 0 0 0 1018.0 1018.0 0.0
21/06:00am 6.0 4.9 5.1 94 0.4 CALM 0 0 0 0 1017.6 1017.6 0.0
21/05:30am 5.7 4.5 4.7 93 0.4 CALM 0 0 0 0 1017.9 1017.9 0.0
21/05:00am 6.8 5.9 5.9 94 0.4 CALM 0 0 0 0 1017.8 1017.8 0.0
21/04:30am 6.1 4.9 4.7 91 0.6 CALM 0 0 0 0 1018.1 1018.1 0.0
21/04:00am 6.5 5.4 5.3 92 0.5 CALM 0 0 0 0 1018.0 1018.0 0.0
21/03:30am 6.5 5.5 5.5 93 0.4 CALM 0 0 0 0 1018.1 1018.1 0.0
21/03:00am 6.2 5.1 5.2 93 0.4 CALM 0 0 0 0 1018.4 1018.4 0.0
21/02:30am 7.3 6.4 5.9 91 0.6 CALM 0 0 0 0 1018.5 1018.5 0.0
21/02:00am 7.5 6.5 5.8 89 0.8 CALM 0 0 0 0 1018.6 1018.6 0.0
21/01:30am 8.7 8.0 7.0 89 0.8 CALM 0 0 0 0 1018.7 1018.7 0.0
21/01:00am 8.3 7.5 6.6 89 0.8 CALM 0 0 0 0 1019.0 1019.0 0.0
21/12:30am 8.6 7.7 5.9 83 1.2 CALM 0 0 0 0 1019.4 1019.4 0.0
21/12:00am 9.9 9.3 7.3 84 1.2 CALM 0 0 0 0 1019.7 1019.7 0.0
 
Date/Time
CDT
Temp
°C
App
Temp
°C
Dew
Point
°C
Rel
Hum
%
Delta-T
°C
Wind Press
QNH
hPa
Press
MSL
hPa
Rain since
9am
mm
Dir  Spd
km/h
Gust
km/h
Spd
kts
Gust
kts
20/11:30pm 9.6 8.8 6.3 80 1.5 CALM 0 0 0 0 1020.2 1020.2 0.0
20/11:00pm 10.2 9.5 7.1 81 1.5 CALM 0 0 0 0 1020.2 1020.2 0.0
20/10:30pm 10.8 10.1 6.9 77 1.8 CALM 0 0 0 0 1020.1 1020.1 0.0
20/10:00pm 12.1 10.2 7.6 74 2.2 SSW 7 7 4 4 1019.9 1019.9 0.0
20/09:30pm 13.5 11.4 8.4 71 2.5 SSW 9 11 5 6 1019.8 1019.8 0.0
20/09:00pm 14.0 11.5 8.0 67 3.0 SSE 11 15 6 8 1019.5 1019.5 0.0
20/08:30pm 15.1 12.2 8.1 63 3.5 SE 13 17 7 9 1019.3 1019.3 0.0
20/08:00pm 16.1 12.9 8.3 60 4.0 SE 15 20 8 11 1019.2 1019.2 0.0
20/07:30pm 16.6 12.7 8.6 59 4.1 SE 19 24 10 13 1018.7 1018.7 0.0
20/07:00pm 16.9 13.0 8.6 58 4.3 SE 19 24 10 13 1018.3 1018.3 0.0
20/06:30pm 17.9 14.0 8.5 54 4.8 SE 19 26 10 14 1018.3 1018.3 0.0
20/06:00pm 18.5 14.4 8.7 53 5.1 SE 20 28 11 15 1018.0 1018.0 0.0
20/05:30pm 18.6 14.7 8.6 52 5.2 SE 19 24 10 13 1017.7 1017.7 0.0
20/05:00pm 19.2 15.0 8.2 49 5.7 SE 20 28 11 15 1017.5 1017.5 0.0
20/04:30pm 19.1 15.0 8.7 51 5.4 SE 20 28 11 15 1017.5 1017.5 0.0
20/04:00pm 19.3 15.5 8.9 51 5.4 SSE 19 26 10 14 1017.6 1017.6 0.0
20/03:30pm 19.3 16.5 8.6 50 5.6 S 13 22 7 12 1017.7 1017.7 0.0
20/03:00pm 20.3 16.6 8.0 45 6.4 S 17 26 9 14 1017.8 1017.8 0.0
20/02:30pm 20.6 17.8 8.6 46 6.3 SSE 13 22 7 12 1017.9 1017.9 0.0
20/02:00pm 20.0 16.7 8.0 46 6.2 S 15 22 8 12 1018.0 1018.0 0.0
20/01:30pm 20.6 16.4 8.3 45 6.4 S 20 26 11 14 1018.1 1018.1 0.0
20/01:00pm 20.6 17.6 7.9 44 6.6 SSE 13 20 7 11 1018.3 1018.3 0.0
20/12:30pm 19.8 16.5 6.5 42 6.7 SW 13 22 7 12 1018.4 1018.4 0.0
20/12:00pm 19.7 16.2 7.4 45 6.3 SSW 15 26 8 14 1018.7 1018.7 0.0
20/11:30am 20.1 18.3 8.1 46 6.2 SSW 7 13 4 7 1018.9 1018.9 0.0
20/11:00am 18.3 15.4 8.3 52 5.1 S 13 17 7 9 1019.2 1019.2 0.0
20/10:30am 19.1 16.9 9.3 53 5.1 ESE 11 20 6 11 1019.2 1019.2 0.0
20/10:00am 16.9 14.0 9.6 62 3.8 S 15 19 8 10 1019.3 1019.3 0.0
20/09:30am 17.4 15.0 10.1 62 3.9 SE 13 17 7 9 1019.2 1019.2 0.0
20/09:00am 15.7 14.1 11.5 76 2.3 S 11 15 6 8 1019.0 1019.0 0.4
20/08:30am 14.3 13.5 11.8 85 1.3 SW 7 9 4 5 1018.7 1018.7 0.4
20/08:00am 13.3 12.1 11.5 89 1.0 WSW 9 11 5 6 1018.4 1018.4 0.4
20/07:30am 12.6 10.9 11.2 91 0.7 WSW 11 13 6 7 1018.2 1018.2 0.4
20/07:00am 12.5 11.2 11.1 91 0.7 WSW 9 11 5 6 1017.8 1017.8 0.4
20/06:30am 12.6 11.3 11.2 91 0.7 WNW 9 11 5 6 1017.6 1017.6 0.4
20/06:00am 12.5 10.8 11.1 91 0.7 WSW 11 15 6 8 1017.4 1017.4 0.4
20/05:30am 12.4 11.0 11.0 91 0.7 W 9 11 5 6 1017.1 1017.1 0.4
20/05:00am 12.4 10.6 11.0 91 0.7 W 11 13 6 7 1017.0 1017.0 0.4
20/04:30am 12.6 11.6 11.0 90 0.8 WNW 7 9 4 5 1016.9 1016.9 0.4
20/04:00am 13.1 10.3 11.2 88 1.0 SE 17 20 9 11 1016.9 1016.9 0.4
20/03:30am 12.0 9.9 11.2 95 0.4 SSW 13 24 7 13 1017.1 1017.1 0.4
20/03:00am 10.8 8.4 10.2 96 0.3 WSW 13 13 7 7 1017.0 1017.0 0.4
20/02:30am 10.4 8.3 9.6 95 0.4 WSW 11 13 6 7 1017.2 1017.2 0.4
20/02:00am 10.7 8.6 9.6 93 0.6 WSW 11 13 6 7 1017.2 1017.2 0.4
20/01:30am 11.9 9.6 10.5 91 0.7 W 13 15 7 8 1017.4 1017.4 0.4
20/01:00am 12.4 10.5 10.6 89 0.9 W 11 13 6 7 1017.6 1017.6 0.4
20/12:30am 12.3 10.5 11.0 92 0.7 W 11 13 6 7 1017.8 1017.8 0.4
20/12:00am 12.2 10.6 10.3 88 1.0 W 9 13 5 7 1017.7 1017.7 0.4
 
Date/Time
CDT
Temp
°C
App
Temp
°C
Dew
Point
°C
Rel
Hum
%
Delta-T
°C
Wind Press
QNH
hPa
Press
MSL
hPa
Rain since
9am
mm
Dir  Spd
km/h
Gust
km/h
Spd
kts
Gust
kts
19/11:30pm 12.6 11.5 10.7 88 1.0 WNW 7 11 4 6 1017.8 1017.8 0.4
19/11:00pm 12.6 11.3 11.2 91 0.7 NW 9 11 5 6 1017.8 1017.8 0.4
19/10:30pm 12.6 11.6 11.0 90 0.8 WNW 7 9 4 5 1017.8 1017.8 0.4
19/10:00pm 13.0 11.7 11.4 90 0.8 SSW 9 11 5 6 1017.8 1017.8 0.4
19/09:30pm 12.7 10.5 10.8 88 1.0 WSW 13 15 7 8 1017.6 1017.6 0.4
19/09:00pm 13.7 11.7 11.6 87 1.1 SW 13 17 7 9 1017.3 1017.3 0.4
19/08:30pm 13.9 11.2 11.8 87 1.1 SW 17 26 9 14 1017.4 1017.4 0.4
19/08:00pm 14.6 11.9 11.6 82 1.6 SSW 17 24 9 13 1017.2 1017.2 0.2
19/07:30pm 14.3 9.5 11.6 84 1.4 SSW 28 37 15 20 1017.2 1017.2 0.2

Other Formats:

Comma delimited format used in spreadsheet applications
http://www.bom.gov.au/fwo/IDS60801/IDS60801.95807.axf

JavaScript Object Notation format (JSON) in row-major order
http://www.bom.gov.au/fwo/IDS60801/IDS60801.95807.json